• Join FlightAware (Why Join?)
  • Login
  • US Flag 
03:44PM EST


 

Airport Tracker/Info


-or-


 

Live Flight TrackerFlight Track Log ✈ AMF1326 ✈ 16-Jul-2013 ✈ KCVG - KAVP

Flight Track Log - Related Links

Times and Time Zones

All times are in EDT time to prevent confusion due to time zone crossing. See the AMF1326 flight status page for this flight to view local times or setup timezone preferences in your user account.

Time Position Orientation Groundspeed Altitude Reporting Facility
EDT Latitude Longitude Course Direction KTS MPH feet Rate Location/Type
05:26AM 39.0500 -84.6667 38° Northeast 113 130 1,300  Level Cincinnati TRACON
05:27AM 39.0667 -84.6500 38° Northeast 156 180 2,800 1,778 Climbing Cincinnati TRACON
05:28AM 39.0500 -84.6000 113° Southeast 153 176 4,500 1,750 Climbing Cincinnati TRACON
05:29AM 39.0167 -84.5667 142° Southeast 159 183 6,300 1,750 Climbing Cincinnati TRACON
05:30AM 38.9833 -84.5167 131° Southeast 159 183 8,000 1,526 Climbing Cincinnati TRACON
05:31AM 38.9667 -84.4667 113° Southeast 159 183 9,200 1,333 Climbing Cincinnati TRACON
05:32AM 38.9522 -84.3983 105° East 162 186 11,000 1,183 Climbing Indianapolis Center
05:33AM 38.9639 -84.3383 76° East 189 217 12,000 984 Climbing Indianapolis Center
05:34AM 38.9864 -84.2789 64° Northeast 184 212 13,000 942 Climbing Indianapolis Center
05:35AM 39.0061 -84.2172 68° East 185 213 13,900 942 Climbing Indianapolis Center
05:36AM 39.0292 -84.1586 63° Northeast 185 213 14,900 984 Climbing Indianapolis Center
05:37AM 39.0478 -84.0942 70° East 189 217 15,900 992 Climbing Indianapolis Center
05:38AM 39.0647 -84.0306 71° East 188 216 16,900 942 Climbing Indianapolis Center
05:39AM 39.0850 -83.9683 67° East 189 217 17,800 639 Climbing Indianapolis Center
05:41AM 39.1036 -83.9058 69° East 187 215 18,200 595 Climbing Indianapolis Center
05:42AM 39.1236 -83.8406 68° East 192 221 19,000 446 Climbing Indianapolis Center
05:43AM 39.1447 -83.7717 68° East 203 234 19,100  Climbing Indianapolis Center
05:44AM 39.1667 -83.6956 70° East 221 254 19,000  Descending Indianapolis Center
05:45AM 39.1908 -83.6175 68° East 231 266 19,100 50 Climbing Indianapolis Center
05:46AM 39.2203 -83.5406 64° Northeast 236 272 19,100  Level Indianapolis Center
05:47AM 39.2483 -83.4614 65° Northeast 240 276 19,100  Level Indianapolis Center
05:48AM 39.2786 -83.3844 63° Northeast 239 275 19,100  Level Indianapolis Center
05:49AM 39.3025 -83.3042 69° East 238 274 19,100 -50 Level Indianapolis Center
05:50AM 39.3300 -83.2250 66° East 240 276 19,000 -50 Descending Indianapolis Center
05:51AM 39.3533 -83.1428 70° East 243 280 19,000  Level Indianapolis Center
05:52AM 39.3775 -83.0600 69° East 244 281 19,000  Level Indianapolis Center
05:53AM 39.4011 -82.9794 69° East 240 276 19,000  Level Indianapolis Center
05:54AM 39.4247 -82.8972 70° East 242 278 19,000  Level Indianapolis Center
05:55AM 39.4486 -82.8142 70° East 244 281 19,000  Level Indianapolis Center
05:56AM 39.4711 -82.7325 70° East 241 277 19,000  Level Indianapolis Center
05:57AM 39.4950 -82.6489 70° East 245 282 19,000  Level Indianapolis Center
05:58AM 39.5181 -82.5669 70° East 242 278 19,000  Level Indianapolis Center
05:59AM 39.5447 -82.4867 67° East 240 276 19,000  Level Indianapolis Center
06:00AM 39.5692 -82.4056 69° East 241 277 19,000  Level Indianapolis Center
06:01AM 39.5942 -82.3247 68° East 241 277 19,000 50 Level Indianapolis Center
06:02AM 39.6186 -82.2431 69° East 241 277 19,100  Climbing Indianapolis Center
06:03AM 39.6447 -82.1619 67° East 240 276 19,000  Descending Indianapolis Center
06:04AM 39.6714 -82.0750 68° East 241 277 19,100 49 Climbing Indianapolis Center
06:05AM 39.6961 -81.9936 68° East 243 280 19,100  Level Indianapolis Center
06:06AM 39.7211 -81.9172 67° East 242 278 19,100 -50 Level Indianapolis Center
06:07AM 39.7444 -81.8347 70° East 243 280 19,000 -49 Descending Indianapolis Center
06:08AM 39.7706 -81.7531 67° East 242 278 19,000  Level Indianapolis Center
06:09AM 39.7953 -81.6706 69° East 243 280 19,000 50 Level Indianapolis Center
06:10AM 39.8206 -81.5883 68° East 244 281 19,100  Climbing Indianapolis Center
06:11AM 39.8458 -81.5064 68° East 242 278 19,000  Descending Indianapolis Center
06:12AM 39.8722 -81.4233 67° East 241 277 19,100 50 Climbing Indianapolis Center
06:13AM 39.8956 -81.3431 69° East 238 274 19,100 -49 Level Indianapolis Center
06:14AM 39.9206 -81.2614 68° East 242 278 19,000  Descending Indianapolis Center
06:15AM 39.9386 -81.1764 74° East 243 280 19,100  Climbing Indianapolis Center
06:16AM 39.9608 -81.0897 71° East 242 278 19,000  Descending Indianapolis Center
06:17AM 39.9783 -81.0053 75° East 240 276 19,100 50 Climbing Indianapolis Center
06:18AM 39.9983 -80.9200 73° East 242 278 19,100  Level Indianapolis Center
06:19AM 40.0147 -80.8542 72° East 243 280 19,100  Level Cleveland Center
06:20AM 40.0358 -80.7728 71° East 243 280 19,100  Level Cleveland Center
06:21AM 40.0589 -80.6889 70° East 243 280 19,100  Level Cleveland Center
06:22AM 40.0817 -80.6047 70° East 243 280 19,100  Level Cleveland Center
06:23AM 40.1025 -80.5233 71° East 243 280 19,100  Level Cleveland Center
06:24AM 40.1256 -80.4419 70° East 243 280 19,100 -50 Level Cleveland Center
06:25AM 40.1525 -80.3603 67° East 243 280 19,000  Descending Cleveland Center
06:26AM 40.1772 -80.2814 68° East 243 280 19,100 50 Climbing Cleveland Center
06:27AM 40.2061 -80.1997 65° Northeast 238 274 19,100  Level Cleveland Center
06:28AM 40.2331 -80.1208 66° East 238 274 19,100  Level Cleveland Center
06:29AM 40.2597 -80.0389 67° East 233 268 19,100  Level Cleveland Center
06:30AM 40.2864 -79.9461 69° East 233 268 19,100  Level Cleveland Center
06:31AM 40.3131 -79.8669 66° East 233 268 19,100  Level Cleveland Center
06:32AM 40.3353 -79.7850 70° East 233 268 19,100  Level Cleveland Center
06:33AM 40.3619 -79.7003 68° East 233 268 19,100  Level Cleveland Center
06:34AM 40.3861 -79.6181 69° East 233 268 19,100  Level Cleveland Center
06:35AM 40.4106 -79.5333 69° East 233 268 19,100  Level Cleveland Center
06:36AM 40.4306 -79.4458 73° East 233 268 19,100  Level Cleveland Center
06:37AM 40.4525 -79.3581 72° East 238 274 19,100  Level Cleveland Center
06:38AM 40.4725 -79.2703 73° East 243 280 19,100  Level Cleveland Center
06:39AM 40.4942 -79.1853 71° East 248 285 19,100  Level Cleveland Center
06:40AM 40.5161 -79.0975 72° East 248 285 19,100  Level Cleveland Center
06:41AM 40.5378 -79.0122 71° East 248 285 19,100  Level Cleveland Center
06:42AM 40.5597 -78.9269 71° East 248 285 19,100  Level Cleveland Center
06:43AM 40.5792 -78.8417 73° East 248 285 19,100  Level Cleveland Center
06:44AM 40.6008 -78.7536 72° East 248 285 19,100  Level Cleveland Center
06:45AM 40.6244 -78.6681 70° East 248 285 19,100  Level Cleveland Center
06:46AM 40.6436 -78.5800 74° East 248 285 19,100  Level Cleveland Center
06:47AM 40.6650 -78.4944 72° East 248 285 19,100  Level Cleveland Center
06:49AM 40.7058 -78.3219 73° East 250 288 19,100  Level New York Center
06:50AM 40.7281 -78.2367 71° East 250 288 19,100  Level New York Center
06:51AM 40.7481 -78.1483 73° East 250 288 19,100  Level New York Center
06:52AM 40.7703 -78.0603 72° East 250 288 19,100 -100 Level New York Center
06:53AM 40.7903 -77.9719 73° East 250 288 18,900 -446 Descending New York Center
06:54AM 40.8125 -77.8783 73° East 257 296 18,200 -450 Descending New York Center
06:55AM 40.8369 -77.7850 71° East 262 302 18,000 -400 Descending New York Center
06:56AM 40.8589 -77.6964 72° East 267 307 17,400 -492 Descending New York Center
06:57AM 40.8869 -77.6061 68° East 267 307 17,000 -655 Descending New York Center
06:58AM 40.9131 -77.5153 69° East 267 307 16,100 -814 Descending New York Center
06:59AM 40.9394 -77.4189 70° East 267 307 15,400 -750 Descending New York Center
07:00AM 40.9642 -77.3086 73° East 273 314 14,600 -843 Descending New York Center
07:01AM 40.9844 -77.2061 75° East 278 320 13,700 -689 Descending New York Center
07:02AM 41.0108 -77.1042 71° East 283 326 13,200 -555 Descending New York Center
07:03AM 41.0347 -77.0072 72° East 283 326 12,600 -800 Descending New York Center
07:04AM 41.0569 -76.9019 74° East 278 320 11,600 -908 Descending New York Center
07:05AM 41.0811 -76.7939 73° East 289 333 10,800 -610 Descending New York Center
07:06AM 41.1050 -76.6914 73° East 289 333 10,400 -347 Descending New York Center
07:07AM 41.1289 -76.5889 73° East 296 341 10,100 -350 Descending New York Center
07:08AM 41.1547 -76.4864 71° East 296 341 9,700 -454 Descending New York Center
07:09AM 41.1758 -76.3917 73° East 291 335 9,200 -344 Descending New York Center
07:10AM 41.2014 -76.2944 71° East 291 335 9,000 -780 Descending New York Center
07:11AM 41.2333 -76.1894 68° East 278 320 7,600 -1,169 Descending New York Center
07:12AM 41.2522 -76.0944 75° East 278 320 6,700 -1,017 Descending New York Center
07:13AM 41.2731 -75.9994 74° East 273 314 5,600 -1,180 Descending New York Center
07:14AM 41.2867 -75.9258 76° East 252 290 4,300 -1,300 Descending New York Center
07:15AM 41.2864 -75.8319 90° East 247 284 3,000 -1,059 Descending New York Center
07:16AM 41.3019 -75.7614 74° East 226 260 2,200 -857 Descending New York Center
07:17AM 41.3272 -75.7053 59° Northeast 170 196 1,300 2,420 Descending New York Center
07:18AM 41.3444 -75.6456 69° East 170 196 7,000 2,826 Climbing New York Center
07:19AM 41.3636 -75.5836 68° East 170 196 7,000  Level New York Center
07:20AM 41.3806 -75.5239 69° East 170 196 7,000  Level New York Center
07:21AM 41.3925 -75.4861 67° East 170 196 7,000  Level New York Center
07:22AM 41.3925 -75.4861 270° West 170 196 7,000  Level New York Center
07:24AM 41.3532 -75.6393 251° West  Level FlightAware Approximate
07:31AM 41.3333 -75.7167 254° West  Level FlightAware Approximate
07:32AM 41.3385 -75.7234 254° West  Level Estimated
07:33AM 41.3333 -75.7167 254° West  Level FlightAware Approximate
07:34AM 41.3385 -75.7234 254° West  Level Estimated
07:35AM 41.3333 -75.7167 254° West  Level FlightAware Approximate
07:36AM 41.3385 -75.7234 254° West  Level Estimated
07:37AM 41.3333 -75.7167 254° West  Level FlightAware Approximate
07:38AM 41.3385 -75.7234 254° West  Level Estimated
07:39AM 41.3333 -75.7167 254° West  Level FlightAware Approximate